createdAt,value
2016-07-26T00:00:22.116Z,0
2016-07-26T00:01:22.862Z,0
2016-07-26T00:02:22.172Z,0
2016-07-26T00:04:22.232Z,0
2016-07-26T00:05:23.194Z,0
2016-07-26T00:06:22.294Z,0
2016-07-26T00:07:22.320Z,0
2016-07-26T00:08:22.345Z,0
2016-07-26T00:09:22.388Z,0
2016-07-26T00:10:22.414Z,0
2016-07-26T00:11:22.444Z,0
2016-07-26T00:12:22.477Z,0
2016-07-26T00:13:22.499Z,0
2016-07-26T00:14:22.522Z,0
2016-07-26T00:15:22.580Z,0
2016-07-26T00:16:22.583Z,0
2016-07-26T00:17:23.320Z,0
2016-07-26T00:18:23.353Z,0
2016-07-26T00:19:22.676Z,0
2016-07-26T00:20:22.701Z,0
2016-07-26T00:21:22.730Z,0
2016-07-26T00:22:24.188Z,0
2016-07-26T00:23:23.497Z,0
2016-07-26T00:24:22.818Z,0
2016-07-26T00:25:22.845Z,0
2016-07-26T00:26:23.582Z,0
2016-07-26T00:27:22.904Z,0
2016-07-26T00:28:22.932Z,0
2016-07-26T00:29:22.982Z,0
2016-07-26T00:30:22.990Z,0
2016-07-26T00:31:23.046Z,0
2016-07-26T00:32:24.482Z,0
2016-07-26T00:33:23.079Z,0
2016-07-26T00:34:23.834Z,0
2016-07-26T00:35:23.853Z,0
2016-07-26T00:36:23.189Z,0
2016-07-26T00:37:23.931Z,0
2016-07-26T00:38:23.937Z,0
2016-07-26T00:39:23.252Z,0
2016-07-26T00:40:23.286Z,0
2016-07-26T00:41:23.314Z,0
2016-07-26T00:42:24.050Z,0
2016-07-26T00:43:23.374Z,0
2016-07-26T00:44:23.408Z,0
2016-07-26T00:45:23.436Z,0
2016-07-26T00:46:24.172Z,0
2016-07-26T00:47:24.201Z,0
2016-07-26T00:48:23.542Z,0
2016-07-26T00:49:23.549Z,0
2016-07-26T00:50:23.577Z,0
2016-07-26T00:51:23.611Z,0
2016-07-26T00:52:23.652Z,0
2016-07-26T00:53:23.671Z,0
2016-07-26T00:54:23.698Z,0
2016-07-26T00:55:23.772Z,0
2016-07-26T00:56:23.759Z,0
2016-07-26T00:57:23.790Z,0
2016-07-26T00:58:24.522Z,0
2016-07-26T00:59:23.838Z,0
2016-07-26T01:00:23.875Z,0
2016-07-26T01:01:23.903Z,0
2016-07-26T01:02:23.941Z,0
2016-07-26T01:03:23.957Z,0
2016-07-26T01:04:25.405Z,0
2016-07-26T01:05:24.013Z,0
2016-07-26T01:06:24.057Z,0
2016-07-26T01:07:24.075Z,0
2016-07-26T01:08:24.105Z,0
2016-07-26T01:09:24.145Z,0
2016-07-26T01:10:24.163Z,0
2016-07-26T01:11:24.897Z,0
2016-07-26T01:12:24.219Z,0
2016-07-26T01:13:24.267Z,0
2016-07-26T01:14:24.289Z,0
2016-07-26T01:15:24.306Z,0
2016-07-26T01:16:24.339Z,0
2016-07-26T01:17:24.372Z,0
2016-07-26T01:18:24.404Z,0
2016-07-26T01:19:25.140Z,0
2016-07-26T01:20:25.167Z,0
2016-07-26T01:21:25.196Z,0
2016-07-26T01:22:24.508Z,0
2016-07-26T01:23:24.546Z,0
2016-07-26T01:24:25.280Z,0
2016-07-26T01:25:24.621Z,0
2016-07-26T01:26:24.656Z,0
2016-07-26T01:27:24.666Z,0
2016-07-26T01:28:24.773Z,0
2016-07-26T01:29:24.721Z,0
2016-07-26T01:30:26.170Z,0
2016-07-26T01:31:25.486Z,0
2016-07-26T01:32:25.519Z,0
2016-07-26T01:33:25.541Z,0
2016-07-26T01:34:26.285Z,0
2016-07-26T01:35:24.911Z,0
2016-07-26T01:36:25.636Z,0
2016-07-26T01:37:24.955Z,0
2016-07-26T01:38:24.987Z,0
2016-07-26T01:39:25.727Z,0
2016-07-26T01:40:25.038Z,0
2016-07-26T01:41:25.083Z,0
2016-07-26T01:42:25.100Z,0
2016-07-26T01:43:25.852Z,0
2016-07-26T01:44:25.871Z,0
2016-07-26T01:45:25.894Z,0
2016-07-26T01:46:26.982Z,0
2016-07-26T01:47:25.249Z,0
2016-07-26T01:48:25.274Z,0
2016-07-26T01:49:25.308Z,0
2016-07-26T01:50:25.343Z,0
2016-07-26T01:51:25.371Z,0
2016-07-26T01:52:25.412Z,0
2016-07-26T01:53:25.441Z,0
2016-07-26T01:54:25.458Z,0
2016-07-26T01:55:25.491Z,0
2016-07-26T01:56:25.507Z,0
2016-07-26T01:57:25.540Z,0
2016-07-26T01:58:26.288Z,0
2016-07-26T01:59:25.631Z,0
2016-07-26T02:00:25.633Z,0
2016-07-26T02:01:26.373Z,0
2016-07-26T02:02:25.688Z,0
2016-07-26T02:03:26.427Z,0
2016-07-26T02:04:25.748Z,0
2016-07-26T02:05:25.784Z,0
2016-07-26T02:06:26.545Z,0
2016-07-26T02:07:25.838Z,0
2016-07-26T02:08:26.580Z,0
2016-07-26T02:09:26.608Z,0
2016-07-26T02:10:25.927Z,0
2016-07-26T02:11:26.670Z,0
2016-07-26T02:12:28.112Z,0
2016-07-26T02:13:26.723Z,0
2016-07-26T02:14:26.061Z,0
2016-07-26T02:15:26.072Z,0
2016-07-26T02:16:26.103Z,0
2016-07-26T02:17:26.844Z,0
2016-07-26T02:18:26.875Z,0
2016-07-26T02:19:26.905Z,0
2016-07-26T02:20:26.925Z,0
2016-07-26T02:21:26.959Z,0
2016-07-26T02:22:26.287Z,0
2016-07-26T02:23:26.304Z,0
2016-07-26T02:24:26.343Z,0
2016-07-26T02:25:27.073Z,0
2016-07-26T02:26:27.141Z,0
2016-07-26T02:27:26.434Z,0
2016-07-26T02:28:26.455Z,0
2016-07-26T02:29:27.201Z,0
2016-07-26T02:30:27.259Z,0
2016-07-26T02:31:26.550Z,0
2016-07-26T02:32:26.573Z,0
2016-07-26T02:33:26.603Z,0
2016-07-26T02:34:26.630Z,0
2016-07-26T02:35:26.666Z,0
2016-07-26T02:36:27.406Z,0
2016-07-26T02:37:27.428Z,0
2016-07-26T02:38:28.288Z,0
2016-07-26T02:39:26.791Z,0
2016-07-26T02:40:26.807Z,0
2016-07-26T02:41:26.838Z,0
2016-07-26T02:42:26.867Z,0
2016-07-26T02:43:26.895Z,0
2016-07-26T02:44:26.922Z,0
2016-07-26T02:45:27.669Z,0
2016-07-26T02:46:27.697Z,0
2016-07-26T02:47:27.010Z,0
2016-07-26T02:48:27.754Z,0
2016-07-26T02:49:27.087Z,0
2016-07-26T02:50:27.813Z,0
2016-07-26T02:51:27.144Z,0
2016-07-26T02:52:27.255Z,0
2016-07-26T02:53:27.186Z,0
2016-07-26T02:54:27.216Z,0
2016-07-26T02:55:27.967Z,0
2016-07-26T02:56:27.297Z,0
2016-07-26T02:57:27.319Z,0
2016-07-26T02:58:27.342Z,0
2016-07-26T02:59:27.364Z,0
2016-07-26T03:00:27.412Z,0
2016-07-26T03:01:27.422Z,0
2016-07-26T03:02:27.455Z,0
2016-07-26T03:03:27.508Z,0
2016-07-26T03:04:27.518Z,0
2016-07-26T03:05:27.541Z,0
2016-07-26T03:06:28.277Z,0
2016-07-26T03:07:27.605Z,0
2016-07-26T03:08:27.633Z,0
2016-07-26T03:09:27.744Z,0
2016-07-26T03:10:28.411Z,0
2016-07-26T03:11:28.437Z,0
2016-07-26T03:12:28.459Z,0
2016-07-26T03:13:29.195Z,0
2016-07-26T03:14:27.820Z,0
2016-07-26T03:15:27.831Z,0
2016-07-26T03:16:28.644Z,0
2016-07-26T03:17:28.605Z,0
2016-07-26T03:18:27.922Z,0
2016-07-26T03:19:27.948Z,0
2016-07-26T03:20:27.982Z,0
2016-07-26T03:21:28.017Z,0
2016-07-26T03:22:28.110Z,0
2016-07-26T03:23:28.072Z,0
2016-07-26T03:24:28.103Z,0
2016-07-26T03:25:28.129Z,0
2016-07-26T03:26:28.155Z,0
2016-07-26T03:27:28.187Z,0
2016-07-26T03:28:28.220Z,0
2016-07-26T03:29:28.288Z,0
2016-07-26T03:30:29.694Z,0
2016-07-26T03:31:28.300Z,0
2016-07-26T03:32:28.335Z,0
2016-07-26T03:33:28.362Z,0
2016-07-26T03:34:28.392Z,0
2016-07-26T03:35:28.430Z,0
2016-07-26T03:36:28.455Z,0
2016-07-26T03:37:28.484Z,0
2016-07-26T03:38:28.505Z,0
2016-07-26T03:39:28.541Z,0
2016-07-26T03:40:28.567Z,0
2016-07-26T03:41:28.599Z,0
2016-07-26T03:42:28.630Z,0
2016-07-26T03:43:28.662Z,0
2016-07-26T03:44:28.684Z,0
2016-07-26T03:45:29.424Z,0
2016-07-26T03:46:29.458Z,4
2016-07-26T03:47:28.783Z,0
2016-07-26T03:48:28.803Z,0
2016-07-26T03:49:28.829Z,0
2016-07-26T03:50:28.865Z,0
2016-07-26T03:51:28.904Z,0
2016-07-26T03:52:28.925Z,4
2016-07-26T03:53:29.657Z,0
2016-07-26T03:54:29.707Z,0
2016-07-26T03:55:29.764Z,0
2016-07-26T03:56:29.039Z,4
2016-07-26T03:57:29.068Z,0
2016-07-26T03:58:29.100Z,0
2016-07-26T03:59:29.129Z,0
2016-07-26T04:00:29.892Z,4
2016-07-26T04:01:29.189Z,0
2016-07-26T04:02:29.216Z,4
2016-07-26T04:03:29.241Z,4
2016-07-26T04:04:29.277Z,0
2016-07-26T04:05:29.301Z,4
2016-07-26T04:06:29.335Z,4
2016-07-26T04:07:29.361Z,0
2016-07-26T04:08:30.111Z,4
2016-07-26T04:09:29.431Z,4
2016-07-26T04:10:29.447Z,0
2016-07-26T04:11:29.495Z,4
2016-07-26T04:12:30.218Z,4
2016-07-26T04:13:29.538Z,4
2016-07-26T04:14:29.566Z,4
2016-07-26T04:15:29.630Z,4
2016-07-26T04:16:30.345Z,4
2016-07-26T04:17:29.654Z,4
2016-07-26T04:18:29.690Z,8
2016-07-26T04:19:29.938Z,4
2016-07-26T04:20:30.460Z,4
2016-07-26T04:21:29.773Z,4
2016-07-26T04:22:29.802Z,4
2016-07-26T04:23:29.833Z,8
2016-07-26T04:24:31.307Z,8
2016-07-26T04:25:29.896Z,4
2016-07-26T04:26:29.917Z,8
2016-07-26T04:27:29.950Z,8
2016-07-26T04:28:30.689Z,8
2016-07-26T04:29:30.010Z,8
2016-07-26T04:30:30.035Z,8
2016-07-26T04:31:30.067Z,8
2016-07-26T04:32:30.103Z,8
2016-07-26T04:33:30.127Z,12
2016-07-26T04:34:30.194Z,8
2016-07-26T04:35:30.184Z,8
2016-07-26T04:36:30.238Z,8
2016-07-26T04:37:30.245Z,12
2016-07-26T04:38:30.270Z,12
2016-07-26T04:39:30.302Z,12
2016-07-26T04:40:30.333Z,8
2016-07-26T04:41:30.361Z,12
2016-07-26T04:42:30.389Z,8
2016-07-26T04:43:30.433Z,12
2016-07-26T04:44:30.456Z,8
2016-07-26T04:45:30.480Z,8
2016-07-26T04:46:30.504Z,12
2016-07-26T04:47:31.242Z,8
2016-07-26T04:48:30.570Z,12
2016-07-26T04:49:30.632Z,12
2016-07-26T04:50:31.371Z,12
2016-07-26T04:51:31.363Z,12
2016-07-26T04:52:30.692Z,12
2016-07-26T04:53:30.708Z,12
2016-07-26T04:54:31.452Z,12
2016-07-26T04:55:30.781Z,12
2016-07-26T04:56:30.797Z,12
2016-07-26T04:57:32.279Z,12
2016-07-26T04:58:31.588Z,12
2016-07-26T04:59:30.888Z,16
2016-07-26T05:00:30.919Z,12
2016-07-26T05:01:30.956Z,12
2016-07-26T05:02:30.977Z,12
2016-07-26T05:03:31.003Z,12
2016-07-26T05:04:31.042Z,12
2016-07-26T05:05:31.063Z,12
2016-07-26T05:06:31.093Z,8
2016-07-26T05:07:31.142Z,12
2016-07-26T05:08:31.168Z,12
2016-07-26T05:09:31.181Z,12
2016-07-26T05:10:31.214Z,16
2016-07-26T05:11:31.950Z,12
2016-07-26T05:12:31.989Z,16
2016-07-26T05:13:31.302Z,16
2016-07-26T05:14:32.039Z,16
2016-07-26T05:15:31.364Z,16
2016-07-26T05:16:32.104Z,20
2016-07-26T05:17:31.412Z,20
2016-07-26T05:18:32.158Z,24
2016-07-26T05:19:31.496Z,24
2016-07-26T05:20:31.503Z,24
2016-07-26T05:21:31.532Z,24
2016-07-26T05:22:31.572Z,24
2016-07-26T05:23:33.017Z,24
2016-07-26T05:24:32.335Z,28
2016-07-26T05:25:31.651Z,28
2016-07-26T05:26:31.680Z,28
2016-07-26T05:27:31.711Z,24
2016-07-26T05:28:31.741Z,28
2016-07-26T05:29:31.774Z,28
2016-07-26T05:30:31.801Z,32
2016-07-26T05:31:31.829Z,32
2016-07-26T05:32:32.561Z,32
2016-07-26T05:33:31.926Z,32
2016-07-26T05:34:31.915Z,28
2016-07-26T05:35:32.670Z,32
2016-07-26T05:36:31.981Z,32
2016-07-26T05:38:32.035Z,32
2016-07-26T05:39:32.775Z,32
2016-07-26T05:40:32.107Z,32
2016-07-26T05:41:32.131Z,36
2016-07-26T05:42:32.152Z,36
2016-07-26T05:43:32.178Z,32
2016-07-26T05:44:32.212Z,36
2016-07-26T05:45:32.241Z,36
2016-07-26T05:46:32.977Z,36
2016-07-26T05:47:32.316Z,36
2016-07-26T05:48:32.335Z,36
2016-07-26T05:49:32.382Z,40
2016-07-26T05:50:32.394Z,36
2016-07-26T05:51:32.419Z,40
2016-07-26T05:52:32.450Z,40
2016-07-26T05:53:32.486Z,40
2016-07-26T05:54:32.518Z,44
2016-07-26T05:55:33.261Z,40
2016-07-26T05:56:32.574Z,44
2016-07-26T05:57:32.594Z,44
2016-07-26T05:58:32.629Z,44
2016-07-26T05:59:32.660Z,48
2016-07-26T06:00:32.682Z,48
2016-07-26T06:01:33.431Z,48
2016-07-26T06:02:32.750Z,48
2016-07-26T06:03:32.774Z,48
2016-07-26T06:04:32.831Z,48
2016-07-26T06:05:32.840Z,48
2016-07-26T06:06:32.863Z,48
2016-07-26T06:07:32.906Z,52
2016-07-26T06:08:32.951Z,52
2016-07-26T06:09:34.401Z,52
2016-07-26T06:10:32.998Z,52
2016-07-26T06:11:33.028Z,56
2016-07-26T06:12:33.759Z,56
2016-07-26T06:13:33.787Z,60
2016-07-26T06:14:33.116Z,56
2016-07-26T06:15:33.139Z,56
2016-07-26T06:16:33.169Z,60
2016-07-26T06:17:33.918Z,64
2016-07-26T06:18:33.952Z,64
2016-07-26T06:19:33.273Z,64
2016-07-26T06:20:34.004Z,68
2016-07-26T06:21:33.319Z,64
2016-07-26T06:22:33.370Z,68
2016-07-26T06:23:34.111Z,68
2016-07-26T06:24:33.401Z,72
2016-07-26T06:25:33.439Z,72
2016-07-26T06:26:34.175Z,72
2016-07-26T06:27:33.496Z,72
2016-07-26T06:28:34.947Z,76
2016-07-26T06:29:33.563Z,76
2016-07-26T06:30:33.607Z,80
2016-07-26T06:31:34.325Z,84
2016-07-26T06:32:33.649Z,84
2016-07-26T06:33:34.391Z,84
2016-07-26T06:34:33.710Z,84
2016-07-26T06:35:33.767Z,88
2016-07-26T06:36:33.786Z,84
2016-07-26T06:37:33.796Z,84
2016-07-26T06:38:34.544Z,84
2016-07-26T06:39:33.859Z,84
2016-07-26T06:40:35.315Z,84
2016-07-26T06:41:33.926Z,88
2016-07-26T06:42:33.948Z,92
2016-07-26T06:43:34.695Z,96
2016-07-26T06:44:34.014Z,96
2016-07-26T06:45:34.746Z,96
2016-07-26T06:46:34.079Z,96
2016-07-26T06:47:34.104Z,96
2016-07-26T06:48:34.133Z,100
2016-07-26T06:49:34.162Z,100
2016-07-26T06:50:34.187Z,100
2016-07-26T06:51:34.235Z,100
2016-07-26T06:52:34.267Z,104
2016-07-26T06:53:34.292Z,84
2016-07-26T06:54:34.342Z,96
2016-07-26T06:55:34.343Z,112
2016-07-26T06:56:35.087Z,112
2016-07-26T06:57:34.404Z,76
2016-07-26T06:58:34.436Z,116
2016-07-26T06:59:34.472Z,116
2016-07-26T07:00:35.210Z,88
2016-07-26T07:01:34.526Z,116
2016-07-26T07:02:35.266Z,120
2016-07-26T07:03:34.606Z,128
2016-07-26T07:04:34.621Z,124
2016-07-26T07:05:35.369Z,128
2016-07-26T07:06:34.676Z,124
2016-07-26T07:07:51.030Z,132
2016-07-26T07:08:34.741Z,132
2016-07-26T07:09:34.792Z,132
2016-07-26T07:10:34.800Z,132
2016-07-26T07:11:34.847Z,132
2016-07-26T07:12:34.870Z,132
2016-07-26T07:13:34.896Z,140
2016-07-26T07:14:35.638Z,144
2016-07-26T07:15:34.962Z,132
2016-07-26T07:16:34.998Z,88
2016-07-26T07:17:35.023Z,148
2016-07-26T07:18:35.045Z,144
2016-07-26T07:19:35.100Z,144
2016-07-26T07:20:35.820Z,152
2016-07-26T07:21:35.144Z,148
2016-07-26T07:22:35.171Z,156
2016-07-26T07:23:35.205Z,84
2016-07-26T07:24:35.236Z,68
2016-07-26T07:25:35.975Z,80
2016-07-26T07:26:36.717Z,152
2016-07-26T07:27:35.330Z,132
2016-07-26T07:28:36.068Z,84
2016-07-26T07:29:36.100Z,84
2016-07-26T07:30:35.425Z,168
2016-07-26T07:31:35.453Z,172
2016-07-26T07:32:36.212Z,176
2016-07-26T07:33:35.520Z,180
2016-07-26T07:34:36.260Z,184
2016-07-26T07:35:36.286Z,184
2016-07-26T07:36:35.628Z,184
2016-07-26T07:37:35.643Z,188
2016-07-26T07:38:36.384Z,184
2016-07-26T07:39:35.702Z,180
2016-07-26T07:40:35.740Z,184
2016-07-26T07:41:36.475Z,192
2016-07-26T07:42:35.813Z,196
2016-07-26T07:43:35.831Z,200
2016-07-26T07:44:35.863Z,196
2016-07-26T07:45:37.311Z,196
2016-07-26T07:46:36.637Z,144
2016-07-26T07:47:35.956Z,180
2016-07-26T07:48:35.989Z,180
2016-07-26T07:49:36.037Z,196
2016-07-26T07:50:36.764Z,112
2016-07-26T07:51:36.101Z,196
2016-07-26T07:52:36.827Z,196
2016-07-26T07:53:36.146Z,192
2016-07-26T07:54:36.179Z,200
2016-07-26T07:55:36.211Z,196
2016-07-26T07:56:36.243Z,100
2016-07-26T07:57:37.024Z,92
2016-07-26T07:58:36.308Z,212
2016-07-26T07:59:36.336Z,208
2016-07-26T08:00:37.076Z,228
2016-07-26T08:01:37.112Z,256
2016-07-26T08:02:37.139Z,268
2016-07-26T08:03:36.475Z,284
2016-07-26T08:04:37.203Z,308
2016-07-26T08:05:36.530Z,316
2016-07-26T08:06:36.562Z,88
2016-07-26T08:07:37.309Z,92
2016-07-26T08:08:37.335Z,80
2016-07-26T08:09:36.664Z,72
2016-07-26T08:10:37.399Z,68
2016-07-26T08:11:37.434Z,68
2016-07-26T08:12:37.480Z,68
2016-07-26T08:13:37.492Z,156
2016-07-26T08:14:36.826Z,76
2016-07-26T08:15:36.844Z,100
2016-07-26T08:16:36.886Z,252
2016-07-26T08:17:37.623Z,272
2016-07-26T08:18:36.947Z,256
2016-07-26T08:19:37.686Z,232
2016-07-26T08:20:37.010Z,228
2016-07-26T08:21:37.050Z,224
2016-07-26T08:22:37.076Z,228
2016-07-26T08:23:37.120Z,228
2016-07-26T08:24:37.137Z,232
2016-07-26T08:25:37.879Z,240
2016-07-26T08:26:37.198Z,248
2016-07-26T08:27:37.234Z,84
2016-07-26T08:28:37.974Z,96
2016-07-26T08:29:37.294Z,192
2016-07-26T08:30:38.037Z,140
2016-07-26T08:31:37.362Z,164
2016-07-26T08:32:37.393Z,272
2016-07-26T08:33:52.339Z,256
2016-07-26T08:34:37.457Z,256
2016-07-26T08:35:37.493Z,248
2016-07-26T08:36:37.525Z,112
2016-07-26T08:37:37.555Z,96
2016-07-26T08:38:37.586Z,84
2016-07-26T08:39:38.346Z,80
2016-07-26T08:40:37.652Z,72
2016-07-26T08:41:38.416Z,68
2016-07-26T08:42:37.727Z,68
2016-07-26T08:43:38.463Z,68
2016-07-26T08:44:38.487Z,72
2016-07-26T08:45:38.527Z,72
2016-07-26T08:46:37.850Z,72
2016-07-26T08:47:38.591Z,72
2016-07-26T08:48:39.327Z,72
2016-07-26T08:49:37.944Z,72
2016-07-26T08:50:38.690Z,76
2016-07-26T08:51:38.039Z,88
2016-07-26T08:52:39.463Z,88
2016-07-26T08:53:38.074Z,108
2016-07-26T08:54:38.106Z,156
2016-07-26T08:55:39.651Z,104
2016-07-26T08:56:38.171Z,108
2016-07-26T08:57:38.954Z,184
2016-07-26T08:58:38.236Z,172
2016-07-26T08:59:38.270Z,116
2016-07-26T09:00:38.298Z,96
2016-07-26T09:01:38.330Z,84
2016-07-26T09:02:38.366Z,80
2016-07-26T09:03:39.104Z,76
2016-07-26T09:04:38.439Z,80
2016-07-26T09:05:39.171Z,80
2016-07-26T09:06:38.513Z,80
2016-07-26T09:07:38.534Z,84
2016-07-26T09:08:39.266Z,84
2016-07-26T09:09:38.589Z,84
2016-07-26T09:10:38.619Z,84
2016-07-26T09:11:38.656Z,104
2016-07-26T09:12:38.728Z,140
2016-07-26T09:13:38.724Z,256
2016-07-26T09:14:38.753Z,260
2016-07-26T09:15:38.788Z,204
2016-07-26T09:16:38.814Z,104
2016-07-26T09:17:38.852Z,84
2016-07-26T09:18:39.583Z,72
2016-07-26T09:19:39.633Z,64
2016-07-26T09:20:38.944Z,60
2016-07-26T09:21:39.693Z,56
2016-07-26T09:22:39.026Z,52
2016-07-26T09:23:39.042Z,48
2016-07-26T09:24:39.071Z,44
2016-07-26T09:25:39.104Z,36
2016-07-26T09:26:39.134Z,32
2016-07-26T09:27:39.880Z,28
2016-07-26T09:28:39.198Z,28
2016-07-26T09:29:39.244Z,28
2016-07-26T09:30:39.263Z,28
2016-07-26T09:31:40.027Z,28
2016-07-26T09:32:39.343Z,32
2016-07-26T09:33:39.364Z,32
2016-07-26T09:34:40.815Z,28
2016-07-26T09:35:39.427Z,28
2016-07-26T09:36:39.461Z,32
2016-07-26T09:37:39.513Z,28
2016-07-26T09:38:39.521Z,32
2016-07-26T09:39:39.569Z,32
2016-07-26T09:40:39.585Z,32
2016-07-26T09:41:40.334Z,28
2016-07-26T09:42:40.361Z,28
2016-07-26T09:43:39.692Z,28
2016-07-26T09:44:39.710Z,28
2016-07-26T09:45:39.755Z,28
2016-07-26T09:46:39.778Z,24
2016-07-26T09:47:39.835Z,24
2016-07-26T09:48:40.551Z,24
2016-07-26T09:49:39.885Z,24
2016-07-26T09:50:39.915Z,20
2016-07-26T09:51:39.945Z,20
2016-07-26T09:52:39.974Z,20
2016-07-26T09:53:40.007Z,24
2016-07-26T09:54:40.763Z,24
2016-07-26T09:55:40.070Z,24
2016-07-26T09:56:40.122Z,24
2016-07-26T09:57:40.142Z,24
2016-07-26T09:58:40.167Z,20
2016-07-26T09:59:40.194Z,20
2016-07-26T10:00:40.230Z,24
2016-07-26T10:01:40.974Z,20
2016-07-26T10:02:40.293Z,20
2016-07-26T10:03:40.326Z,20
2016-07-26T10:04:40.356Z,24
2016-07-26T10:05:40.382Z,20
2016-07-26T10:06:40.419Z,20
2016-07-26T10:07:40.445Z,24
2016-07-26T10:08:41.195Z,24
2016-07-26T10:09:40.511Z,28
2016-07-26T10:10:40.545Z,24
2016-07-26T10:11:40.573Z,24
2016-07-26T10:12:41.330Z,28
2016-07-26T10:13:41.360Z,28
2016-07-26T10:14:42.625Z,28
2016-07-26T10:15:41.407Z,32
2016-07-26T10:16:41.673Z,32
2016-07-26T10:17:41.471Z,36
2016-07-26T10:18:40.793Z,36
2016-07-26T10:19:40.839Z,40
2016-07-26T10:20:41.586Z,44
2016-07-26T10:21:40.887Z,44
2016-07-26T10:22:40.919Z,52
2016-07-26T10:23:40.951Z,56
2016-07-26T10:24:40.981Z,64
2016-07-26T10:25:41.012Z,72
2016-07-26T10:26:41.755Z,84
2016-07-26T10:27:41.073Z,112
2016-07-26T10:28:41.115Z,132
2016-07-26T10:29:41.152Z,156
2016-07-26T10:30:41.874Z,132
2016-07-26T10:31:41.398Z,124
2016-07-26T10:32:41.226Z,128
2016-07-26T10:33:41.258Z,128
2016-07-26T10:34:41.287Z,152
2016-07-26T10:35:41.342Z,152
2016-07-26T10:36:41.345Z,160
2016-07-26T10:37:41.382Z,148
2016-07-26T10:38:41.411Z,140
2016-07-26T10:39:41.447Z,144
2016-07-26T10:40:41.470Z,152
2016-07-26T10:41:41.505Z,164
2016-07-26T10:42:41.535Z,164
2016-07-26T10:43:42.282Z,148
2016-07-26T10:44:41.603Z,172
2016-07-26T10:45:41.628Z,188
2016-07-26T10:46:57.262Z,196
2016-07-26T10:47:42.400Z,200
2016-07-26T10:48:42.570Z,188
2016-07-26T10:49:41.753Z,188
2016-07-26T10:50:41.782Z,180
2016-07-26T10:51:41.910Z,160
2016-07-26T10:52:41.845Z,124
2016-07-26T10:53:43.292Z,104
2016-07-26T10:54:41.908Z,152
2016-07-26T10:55:42.645Z,96
2016-07-26T10:56:42.680Z,88
2016-07-26T10:57:41.996Z,92
2016-07-26T10:58:42.032Z,80
2016-07-26T10:59:42.065Z,80
2016-07-26T11:00:42.097Z,76
2016-07-26T11:01:42.127Z,72
2016-07-26T11:02:42.167Z,68
2016-07-26T11:03:42.927Z,64
2016-07-26T11:04:42.929Z,64
2016-07-26T11:05:42.968Z,64
2016-07-26T11:06:42.283Z,64
2016-07-26T11:07:42.329Z,64
2016-07-26T11:08:42.361Z,64
2016-07-26T11:09:42.457Z,60
2016-07-26T11:10:42.406Z,60
2016-07-26T11:11:42.438Z,64
2016-07-26T11:12:43.191Z,72
2016-07-26T11:13:42.501Z,72
2016-07-26T11:14:42.535Z,72
2016-07-26T11:15:42.713Z,80
2016-07-26T11:16:43.307Z,92
2016-07-26T11:17:42.626Z,180
2016-07-26T11:18:42.660Z,208
2016-07-26T11:19:42.694Z,208
2016-07-26T11:20:44.151Z,212
2016-07-26T11:21:42.754Z,212
2016-07-26T11:22:42.783Z,184
2016-07-26T11:23:45.732Z,112
2016-07-26T11:24:43.700Z,100
2016-07-26T11:25:43.608Z,96
2016-07-26T11:26:42.912Z,184
2016-07-26T11:27:43.049Z,216
2016-07-26T11:28:42.992Z,204
2016-07-26T11:29:43.710Z,96
2016-07-26T11:30:45.086Z,88
2016-07-26T11:31:46.528Z,88
2016-07-26T11:32:43.097Z,108
2016-07-26T11:33:43.130Z,176
2016-07-26T11:34:43.180Z,180
2016-07-26T11:35:43.193Z,152
2016-07-26T11:36:43.229Z,76
2016-07-26T11:37:43.261Z,64
2016-07-26T11:38:43.294Z,56
2016-07-26T11:39:43.318Z,52
2016-07-26T11:40:43.351Z,44
2016-07-26T11:41:44.813Z,40
2016-07-26T11:42:43.416Z,36
2016-07-26T11:43:44.169Z,36
2016-07-26T11:44:43.505Z,32
2016-07-26T11:45:43.521Z,32
2016-07-26T11:46:44.257Z,32
2016-07-26T11:47:43.578Z,32
2016-07-26T11:48:43.606Z,32
2016-07-26T11:49:43.636Z,32
2016-07-26T11:50:44.383Z,32
2016-07-26T11:51:44.436Z,28
2016-07-26T11:52:43.727Z,28
2016-07-26T11:53:44.471Z,24
2016-07-26T11:54:43.802Z,28
2016-07-26T11:55:44.532Z,28
2016-07-26T11:56:43.863Z,28
2016-07-26T11:57:44.598Z,28
2016-07-26T11:58:43.924Z,24
2016-07-26T11:59:44.676Z,24
2016-07-26T12:00:44.694Z,24
2016-07-26T12:01:44.013Z,24
2016-07-26T12:02:44.766Z,24
2016-07-26T12:03:44.073Z,24
2016-07-26T12:04:46.261Z,28
2016-07-26T12:05:44.849Z,28
2016-07-26T12:06:44.902Z,24
2016-07-26T12:07:44.215Z,24
2016-07-26T12:08:45.649Z,28
2016-07-26T12:09:44.261Z,24
2016-07-26T12:10:44.302Z,28
2016-07-26T12:11:45.038Z,24
2016-07-26T12:12:44.356Z,24
2016-07-26T12:13:45.103Z,28
2016-07-26T12:14:44.421Z,28
2016-07-26T12:15:45.876Z,28
2016-07-26T12:16:45.195Z,28
2016-07-26T12:17:45.226Z,28
2016-07-26T12:18:44.556Z,32
2016-07-26T12:19:45.291Z,28
2016-07-26T12:20:44.611Z,32
2016-07-26T12:21:45.350Z,28
2016-07-26T12:22:44.672Z,32
2016-07-26T12:23:45.437Z,32
2016-07-26T12:24:44.736Z,32
2016-07-26T12:25:44.774Z,32
2016-07-26T12:26:44.818Z,32
2016-07-26T12:27:45.537Z,32
2016-07-26T12:28:45.772Z,36
2016-07-26T12:29:44.892Z,36
2016-07-26T12:30:44.925Z,36
2016-07-26T12:31:44.956Z,32
2016-07-26T12:32:45.005Z,36
2016-07-26T12:33:45.019Z,36
2016-07-26T12:34:45.047Z,36
2016-07-26T12:35:45.082Z,36
2016-07-26T12:36:45.109Z,36
2016-07-26T12:37:45.852Z,32
2016-07-26T12:38:45.173Z,28
2016-07-26T12:39:45.207Z,24
2016-07-26T12:40:45.950Z,28
2016-07-26T12:41:45.989Z,32
2016-07-26T12:42:46.005Z,36
2016-07-26T12:43:45.345Z,44
2016-07-26T12:44:45.361Z,48
2016-07-26T12:45:45.395Z,52
2016-07-26T12:46:45.422Z,60
2016-07-26T12:47:45.454Z,68
2016-07-26T12:48:45.489Z,84
2016-07-26T12:49:45.528Z,136
2016-07-26T12:50:45.557Z,168
2016-07-26T12:51:45.584Z,168
2016-07-26T12:52:45.609Z,108
2016-07-26T12:53:45.644Z,100
2016-07-26T12:54:46.392Z,92
2016-07-26T12:55:45.702Z,88
2016-07-26T12:56:45.737Z,88
2016-07-26T12:57:46.524Z,84
2016-07-26T12:58:45.844Z,84
2016-07-26T12:59:46.558Z,84
2016-07-26T13:00:47.504Z,84
2016-07-26T13:01:45.890Z,80
2016-07-26T13:02:46.631Z,76
2016-07-26T13:03:46.017Z,72
2016-07-26T13:04:46.752Z,64
2016-07-26T13:05:46.026Z,64
2016-07-26T13:06:46.093Z,60
2016-07-26T13:07:46.077Z,60
2016-07-26T13:08:46.109Z,56
2016-07-26T13:09:46.849Z,56
2016-07-26T13:10:46.165Z,56
2016-07-26T13:11:46.200Z,56
2016-07-26T13:12:46.951Z,52
2016-07-26T13:13:46.265Z,52
2016-07-26T13:14:47.713Z,56
2016-07-26T13:15:46.326Z,56
2016-07-26T13:16:47.774Z,56
2016-07-26T13:17:46.395Z,56
2016-07-26T13:18:46.415Z,56
2016-07-26T13:19:47.152Z,60
2016-07-26T13:20:46.473Z,60
2016-07-26T13:21:46.511Z,64
2016-07-26T13:22:47.282Z,68
2016-07-26T13:23:46.568Z,76
2016-07-26T13:24:46.602Z,88
2016-07-26T13:25:46.629Z,56
2016-07-26T13:26:46.655Z,48
2016-07-26T13:27:47.404Z,44
2016-07-26T13:28:46.718Z,36
2016-07-26T13:29:46.759Z,28
2016-07-26T13:30:47.498Z,28
2016-07-26T13:31:46.813Z,20
2016-07-26T13:32:46.860Z,24
2016-07-26T13:33:46.879Z,16
2016-07-26T13:34:46.920Z,20
2016-07-26T13:35:47.646Z,16
2016-07-26T13:36:46.965Z,16
2016-07-26T13:37:46.999Z,16
2016-07-26T13:38:47.043Z,16
2016-07-26T13:39:47.069Z,16
2016-07-26T13:40:47.799Z,20
2016-07-26T13:41:47.117Z,24
2016-07-26T13:42:47.150Z,32
2016-07-26T13:43:47.176Z,40
2016-07-26T13:44:47.211Z,40
2016-07-26T13:45:47.964Z,48
2016-07-26T13:46:47.286Z,48
2016-07-26T13:47:48.018Z,44
2016-07-26T13:48:47.327Z,40
2016-07-26T13:49:48.071Z,32
2016-07-26T13:50:47.386Z,28
2016-07-26T13:51:47.420Z,24
2016-07-26T13:52:47.455Z,20
2016-07-26T13:53:47.484Z,20
2016-07-26T13:54:47.516Z,20
2016-07-26T13:55:47.547Z,24
2016-07-26T13:56:47.585Z,28
2016-07-26T13:57:47.606Z,32
2016-07-26T13:58:48.347Z,36
2016-07-26T13:59:47.663Z,36
2016-07-26T14:00:47.694Z,40
2016-07-26T14:01:47.737Z,40
2016-07-26T14:02:47.759Z,48
2016-07-26T14:03:47.792Z,48
2016-07-26T14:04:47.813Z,48
2016-07-26T14:05:47.849Z,44
2016-07-26T14:06:47.872Z,44
2016-07-26T14:07:47.908Z,44
2016-07-26T14:08:48.648Z,44
2016-07-26T14:09:47.971Z,40
2016-07-26T14:10:48.011Z,36
2016-07-26T14:11:48.740Z,36
2016-07-26T14:12:48.778Z,32
2016-07-26T14:13:48.100Z,32
2016-07-26T14:14:48.828Z,32
2016-07-26T14:15:48.155Z,28
2016-07-26T14:16:48.899Z,28
2016-07-26T14:17:49.653Z,28
2016-07-26T14:18:48.242Z,28
2016-07-26T14:19:48.291Z,24
2016-07-26T14:20:48.304Z,24
2016-07-26T14:21:48.328Z,24
2016-07-26T14:22:48.364Z,28